createdAt,value
2023-04-10T00:05:45.535Z,36.9
2023-04-10T00:13:17.939Z,36.9
2023-04-10T00:20:50.482Z,37.0
2023-04-10T00:28:22.933Z,36.9
2023-04-10T00:35:55.365Z,36.9
2023-04-10T00:43:27.814Z,36.8
2023-04-10T00:51:00.334Z,36.8
2023-04-10T00:58:32.780Z,36.8
2023-04-10T01:06:05.253Z,36.9
2023-04-10T01:13:37.669Z,36.9
2023-04-10T01:21:10.064Z,37.0
2023-04-10T01:28:42.501Z,37.0
2023-04-10T01:36:14.940Z,37.0
2023-04-10T01:43:47.362Z,36.9
2023-04-10T01:51:19.805Z,36.9
2023-04-10T01:58:52.250Z,37.0
2023-04-10T02:06:24.662Z,37.0
2023-04-10T02:13:57.081Z,37.0
2023-04-10T02:21:29.487Z,37.1
2023-04-10T02:29:01.894Z,37.0
2023-04-10T02:36:34.324Z,37.0
2023-04-10T02:44:06.757Z,37.0
2023-04-10T02:51:39.202Z,37.1
2023-04-10T02:59:11.639Z,37.0
2023-04-10T03:06:44.076Z,37.0
2023-04-10T03:14:16.518Z,36.9
2023-04-10T03:21:48.946Z,36.9
2023-04-10T03:29:21.392Z,37.0
2023-04-10T03:36:53.823Z,37.0
2023-04-10T03:44:26.248Z,37.0
2023-04-10T03:51:58.669Z,37.0
2023-04-10T03:59:38.283Z,37.0
2023-04-10T04:07:11.185Z,37.0
2023-04-10T04:14:43.638Z,37.0
2023-04-10T04:21:56.048Z,37.0
2023-04-10T04:22:43.487Z,37.0
2023-04-10T04:23:30.937Z,37.1
2023-04-10T04:24:18.379Z,36.4
2023-04-10T04:25:05.885Z,36.2
2023-04-10T04:25:53.315Z,36.1
2023-04-10T04:26:40.746Z,36.2
2023-04-10T04:27:28.145Z,36.1
2023-04-10T04:28:15.606Z,36.1
2023-04-10T04:29:03.046Z,36.0
2023-04-10T04:29:50.457Z,35.9
2023-04-10T04:30:37.968Z,35.6
2023-04-10T04:31:25.496Z,35.6
2023-04-10T04:32:13.137Z,35.7
2023-04-10T04:33:00.856Z,35.9
2023-04-10T04:33:48.296Z,36.1
2023-04-10T04:34:35.693Z,36.3
2023-04-10T04:35:23.123Z,36.4
2023-04-10T04:36:11.011Z,36.5
2023-04-10T04:36:58.458Z,36.6
2023-04-10T04:37:45.924Z,36.6
2023-04-10T04:38:33.358Z,36.6
2023-04-10T04:39:20.767Z,36.6
2023-04-10T04:40:08.234Z,36.5
2023-04-10T04:40:55.678Z,36.6
2023-04-10T04:41:43.091Z,36.7
2023-04-10T04:42:30.533Z,36.8
2023-04-10T04:43:17.966Z,36.9
2023-04-10T04:44:05.440Z,36.9
2023-04-10T04:44:52.869Z,37.0
2023-04-10T04:45:40.357Z,37.1
2023-04-10T04:46:27.816Z,37.2
2023-04-10T04:47:15.283Z,37.2
2023-04-10T04:48:02.728Z,37.4
2023-04-10T04:48:50.238Z,38.1
2023-04-10T04:49:37.665Z,38.1
2023-04-10T04:50:25.092Z,37.9
2023-04-10T04:51:12.521Z,37.7
2023-04-10T04:51:59.962Z,37.8
2023-04-10T04:52:47.398Z,37.6
2023-04-10T04:53:34.838Z,37.8
2023-04-10T04:54:22.265Z,37.9
2023-04-10T04:55:09.708Z,37.4
2023-04-10T04:55:57.128Z,36.9
2023-04-10T04:56:44.551Z,37.4
2023-04-10T04:57:31.980Z,37.4
2023-04-10T04:58:19.424Z,37.6
2023-04-10T04:59:06.874Z,37.8
2023-04-10T04:59:54.354Z,38.1
2023-04-10T05:00:41.793Z,38.2
2023-04-10T05:01:29.694Z,38.1
2023-04-10T05:02:17.229Z,37.9
2023-04-10T05:03:04.828Z,37.9
2023-04-10T05:03:52.584Z,38.0
2023-04-10T05:04:40.066Z,38.4
2023-04-10T05:05:27.504Z,38.3
2023-04-10T05:06:14.934Z,38.1
2023-04-10T05:07:02.360Z,37.9
2023-04-10T05:07:49.834Z,38.0
2023-04-10T05:08:37.316Z,38.0
2023-04-10T05:09:24.770Z,38.0
2023-04-10T05:10:12.207Z,37.9
2023-04-10T05:10:59.649Z,37.7
2023-04-10T05:11:47.089Z,37.4
2023-04-10T05:12:34.529Z,37.5
2023-04-10T05:13:22.029Z,37.7
2023-04-10T05:14:09.508Z,37.9
2023-04-10T05:14:56.951Z,37.8
2023-04-10T05:15:44.444Z,37.6
2023-04-10T05:16:32.112Z,37.7
2023-04-10T05:17:19.621Z,37.7
2023-04-10T05:18:07.218Z,37.7
2023-04-10T05:18:55.149Z,37.9
2023-04-10T05:19:42.909Z,37.9
2023-04-10T05:20:30.380Z,37.9
2023-04-10T05:21:17.822Z,38.0
2023-04-10T05:22:05.612Z,37.9
2023-04-10T05:22:53.154Z,37.9
2023-04-10T05:23:40.548Z,38.1
2023-04-10T05:24:27.991Z,38.2
2023-04-10T05:25:15.435Z,38.2
2023-04-10T05:26:02.884Z,38.2
2023-04-10T05:26:50.329Z,38.2
2023-04-10T05:27:37.791Z,38.1
2023-04-10T05:28:25.261Z,38.1
2023-04-10T05:29:12.728Z,38.1
2023-04-10T05:30:00.151Z,38.1
2023-04-10T05:30:47.668Z,38.0
2023-04-10T05:31:35.253Z,38.1
2023-04-10T05:32:22.851Z,37.9
2023-04-10T05:33:10.444Z,37.9
2023-04-10T05:33:57.945Z,38.0
2023-04-10T05:34:45.372Z,38.0
2023-04-10T05:35:32.855Z,37.7
2023-04-10T05:36:20.402Z,37.5
2023-04-10T05:37:07.952Z,37.1
2023-04-10T05:37:55.394Z,37.1
2023-04-10T05:38:42.854Z,37.1
2023-04-10T05:39:30.306Z,37.2
2023-04-10T05:40:17.750Z,37.3
2023-04-10T05:41:05.200Z,37.4
2023-04-10T05:41:53.112Z,37.4
2023-04-10T05:42:40.558Z,37.6
2023-04-10T05:43:28.436Z,37.7
2023-04-10T05:44:16.063Z,37.8
2023-04-10T05:45:03.517Z,38.0
2023-04-10T05:45:51.207Z,38.0
2023-04-10T05:46:38.688Z,38.2
2023-04-10T05:47:26.285Z,38.2
2023-04-10T05:48:13.778Z,38.3
2023-04-10T05:49:01.311Z,38.3
2023-04-10T05:49:48.753Z,38.3
2023-04-10T05:50:36.248Z,38.3
2023-04-10T05:51:23.681Z,38.9
2023-04-10T05:52:11.121Z,38.3
2023-04-10T05:52:58.547Z,38.3
2023-04-10T05:53:46.005Z,38.3
2023-04-10T05:54:33.485Z,38.3
2023-04-10T05:55:20.922Z,38.2
2023-04-10T05:56:08.588Z,38.3
2023-04-10T05:56:56.091Z,38.3
2023-04-10T05:57:43.707Z,38.2
2023-04-10T05:58:31.156Z,38.2
2023-04-10T05:59:18.792Z,38.1
2023-04-10T06:00:06.374Z,38.2
2023-04-10T06:00:53.910Z,38.1
2023-04-10T06:01:41.399Z,38.1
2023-04-10T06:02:29.057Z,38.2
2023-04-10T06:03:16.759Z,38.2
2023-04-10T06:04:04.922Z,38.2
2023-04-10T06:04:52.576Z,38.2
2023-04-10T06:05:40.185Z,38.2
2023-04-10T06:06:27.643Z,38.2
2023-04-10T06:07:15.203Z,38.2
2023-04-10T06:08:02.692Z,38.2
2023-04-10T06:08:50.143Z,38.1
2023-04-10T06:09:37.591Z,38.1
2023-04-10T06:10:25.054Z,38.0
2023-04-10T06:11:12.484Z,38.1
2023-04-10T06:11:59.947Z,38.1
2023-04-10T06:12:47.371Z,37.9
2023-04-10T06:13:34.816Z,37.9
2023-04-10T06:14:22.248Z,38.0
2023-04-10T06:15:09.675Z,38.1
2023-04-10T06:15:57.151Z,38.0
2023-04-10T06:16:44.632Z,38.1
2023-04-10T06:17:32.106Z,38.1
2023-04-10T06:18:19.925Z,38.0
2023-04-10T06:19:07.676Z,38.0
2023-04-10T06:19:55.119Z,38.0
2023-04-10T06:20:42.715Z,37.9
2023-04-10T06:21:30.578Z,38.0
2023-04-10T06:22:18.069Z,38.1
2023-04-10T06:23:05.630Z,38.0
2023-04-10T06:23:53.214Z,38.0
2023-04-10T06:24:40.853Z,38.0
2023-04-10T06:25:28.298Z,37.9
2023-04-10T06:26:15.748Z,38.0
2023-04-10T06:27:03.266Z,38.0
2023-04-10T06:27:50.714Z,37.9
2023-04-10T06:28:38.152Z,37.9
2023-04-10T06:29:25.581Z,38.0
2023-04-10T06:30:13.049Z,37.9
2023-04-10T06:31:00.569Z,37.9
2023-04-10T06:31:48.073Z,37.8
2023-04-10T06:32:35.570Z,37.5
2023-04-10T06:33:24.283Z,37.4
2023-04-10T06:34:13.644Z,37.5
2023-04-10T06:35:01.272Z,37.6
2023-04-10T06:35:49.026Z,37.6
2023-04-10T06:36:36.464Z,37.6
2023-04-10T06:37:23.916Z,37.5
2023-04-10T06:38:11.376Z,37.4
2023-04-10T06:38:58.838Z,37.5
2023-04-10T06:39:46.327Z,37.6
2023-04-10T06:40:33.794Z,37.6
2023-04-10T06:41:21.282Z,37.6
2023-04-10T06:42:08.776Z,37.6
2023-04-10T06:42:56.245Z,37.7
2023-04-10T06:43:43.673Z,37.8
2023-04-10T06:44:31.082Z,38.0
2023-04-10T06:45:18.530Z,37.9
2023-04-10T06:46:06.421Z,37.9
2023-04-10T06:46:53.895Z,37.8
2023-04-10T06:47:41.357Z,37.7
2023-04-10T06:48:28.875Z,37.8
2023-04-10T06:49:16.332Z,37.8
2023-04-10T06:50:03.784Z,37.8
2023-04-10T06:50:51.498Z,37.7
2023-04-10T06:51:38.951Z,37.7
2023-04-10T06:52:26.389Z,38.2
2023-04-10T06:53:13.855Z,37.8
2023-04-10T06:54:01.316Z,37.7
2023-04-10T06:54:48.812Z,37.8
2023-04-10T06:55:36.392Z,37.7
2023-04-10T06:56:24.014Z,37.8
2023-04-10T06:57:11.438Z,37.8
2023-04-10T06:57:59.412Z,37.8
2023-04-10T06:58:46.859Z,37.9
2023-04-10T06:59:34.281Z,37.9
2023-04-10T07:00:21.732Z,37.9
2023-04-10T07:01:09.277Z,38.0
2023-04-10T07:01:56.823Z,37.9
2023-04-10T07:02:44.692Z,38.0
2023-04-10T07:03:32.163Z,38.0
2023-04-10T07:04:20.134Z,37.8
2023-04-10T07:05:07.566Z,37.8
2023-04-10T07:05:55.022Z,37.8
2023-04-10T07:06:42.443Z,37.6
2023-04-10T07:07:29.864Z,37.6
2023-04-10T07:08:17.293Z,37.7
2023-04-10T07:09:04.736Z,37.8
2023-04-10T07:09:52.208Z,37.7
2023-04-10T07:10:39.658Z,37.6
2023-04-10T07:11:27.085Z,37.7
2023-04-10T07:12:14.531Z,37.7
2023-04-10T07:13:01.973Z,37.8
2023-04-10T07:13:49.434Z,37.9
2023-04-10T07:14:36.875Z,37.9
2023-04-10T07:15:24.332Z,37.9
2023-04-10T07:16:11.808Z,37.9
2023-04-10T07:16:59.322Z,37.8
2023-04-10T07:17:46.833Z,37.8
2023-04-10T07:18:34.284Z,37.8
2023-04-10T07:19:21.754Z,37.8
2023-04-10T07:20:09.222Z,37.8
2023-04-10T07:20:56.673Z,37.7
2023-04-10T07:21:44.194Z,37.8
2023-04-10T07:22:31.666Z,37.8
2023-04-10T07:23:19.142Z,38.0
2023-04-10T07:24:06.596Z,38.1
2023-04-10T07:24:54.047Z,37.6
2023-04-10T07:25:41.609Z,36.4
2023-04-10T07:26:29.064Z,36.4
2023-04-10T07:27:16.509Z,36.5
2023-04-10T07:28:04.006Z,35.9
2023-04-10T07:28:51.555Z,35.6
2023-04-10T07:29:39.132Z,35.6
2023-04-10T07:30:26.652Z,35.7
2023-04-10T07:31:14.343Z,35.8
2023-04-10T07:32:01.955Z,36.1
2023-04-10T07:32:49.681Z,36.3
2023-04-10T07:33:37.460Z,36.5
2023-04-10T07:34:24.889Z,36.7
2023-04-10T07:35:12.393Z,37.0
2023-04-10T07:36:00.164Z,37.2
2023-04-10T07:36:47.722Z,37.3
2023-04-10T07:37:35.168Z,37.4
2023-04-10T07:38:23.053Z,37.4
2023-04-10T07:39:10.711Z,37.5
2023-04-10T07:39:58.181Z,37.6
2023-04-10T07:40:46.438Z,37.6
2023-04-10T07:41:33.893Z,37.7
2023-04-10T07:42:21.314Z,37.8
2023-04-10T07:43:08.789Z,38.0
2023-04-10T07:43:56.234Z,37.6
2023-04-10T07:44:43.683Z,37.9
2023-04-10T07:45:31.140Z,38.3
2023-04-10T07:46:18.580Z,37.8
2023-04-10T07:47:06.029Z,37.7
2023-04-10T07:47:53.549Z,37.8
2023-04-10T07:48:41.038Z,37.9
2023-04-10T07:49:28.567Z,38.2
2023-04-10T07:50:16.184Z,37.9
2023-04-10T07:51:03.634Z,37.7
2023-04-10T07:51:51.062Z,37.0
2023-04-10T07:52:38.537Z,36.7
2023-04-10T07:53:25.979Z,36.5
2023-04-10T07:54:13.845Z,36.7
2023-04-10T07:55:01.438Z,36.9
2023-04-10T07:55:49.002Z,37.0
2023-04-10T07:56:36.497Z,37.0
2023-04-10T07:57:24.049Z,37.2
2023-04-10T07:58:11.781Z,37.3
2023-04-10T07:58:59.237Z,37.4
2023-04-10T07:59:46.672Z,37.4
2023-04-10T08:00:34.357Z,37.4
2023-04-10T08:01:21.823Z,37.5
2023-04-10T08:02:09.387Z,37.5
2023-04-10T08:02:57.415Z,37.5
2023-04-10T08:03:45.317Z,37.6
2023-04-10T08:04:33.154Z,37.5
2023-04-10T08:05:20.783Z,37.4
2023-04-10T08:06:08.756Z,37.4
2023-04-10T08:06:56.197Z,37.5
2023-04-10T08:07:43.697Z,37.4
2023-04-10T08:08:31.172Z,37.3
2023-04-10T08:09:18.617Z,37.0
2023-04-10T08:10:06.086Z,36.6
2023-04-10T08:10:53.550Z,36.2
2023-04-10T08:11:40.989Z,36.1
2023-04-10T08:12:28.430Z,35.9
2023-04-10T08:13:16.027Z,35.9
2023-04-10T08:14:03.527Z,35.9
2023-04-10T08:14:51.218Z,35.9
2023-04-10T08:15:38.994Z,36.0
2023-04-10T08:16:26.698Z,36.1
2023-04-10T08:17:14.179Z,36.1
2023-04-10T08:18:01.831Z,36.2
2023-04-10T08:18:49.437Z,36.4
2023-04-10T08:19:36.877Z,36.5
2023-04-10T08:20:24.410Z,36.5
2023-04-10T08:21:11.867Z,36.6
2023-04-10T08:21:59.322Z,36.6
2023-04-10T08:22:46.774Z,36.7
2023-04-10T08:23:34.334Z,36.5
2023-04-10T08:24:21.785Z,36.5
2023-04-10T08:25:09.304Z,36.5
2023-04-10T08:25:56.755Z,36.5
2023-04-10T08:26:44.217Z,36.5
2023-04-10T08:27:31.713Z,36.2
2023-04-10T08:28:19.201Z,36.1
2023-04-10T08:29:06.642Z,36.4
2023-04-10T08:29:54.097Z,36.5
2023-04-10T08:30:41.585Z,36.6
2023-04-10T08:31:29.425Z,36.8
2023-04-10T08:32:16.986Z,36.8
2023-04-10T08:33:04.603Z,36.8
2023-04-10T08:33:52.274Z,36.8
2023-04-10T08:34:40.034Z,36.8
2023-04-10T08:35:27.622Z,36.8
2023-04-10T08:36:15.457Z,36.8
2023-04-10T08:37:03.959Z,36.8
2023-04-10T08:38:07.793Z,37.0
2023-04-10T08:38:48.840Z,37.0
2023-04-10T08:39:36.300Z,37.1
2023-04-10T08:40:23.964Z,37.2
2023-04-10T08:41:11.461Z,37.2
2023-04-10T08:41:58.901Z,37.7
2023-04-10T08:42:46.355Z,37.1
2023-04-10T08:43:33.815Z,37.2
2023-04-10T08:44:21.251Z,37.1
2023-04-10T08:45:08.677Z,37.1
2023-04-10T08:45:56.141Z,37.3
2023-04-10T08:46:43.935Z,37.4
2023-04-10T08:47:31.553Z,37.2
2023-04-10T08:48:19.087Z,37.4
2023-04-10T08:49:06.525Z,37.1
2023-04-10T08:49:53.984Z,37.3
2023-04-10T08:50:41.424Z,37.1
2023-04-10T08:51:28.874Z,37.3
2023-04-10T08:52:16.535Z,37.2
2023-04-10T08:53:04.091Z,37.1
2023-04-10T08:53:51.656Z,37.2
2023-04-10T08:54:39.160Z,37.1
2023-04-10T08:55:26.844Z,37.2
2023-04-10T08:56:14.277Z,36.8
2023-04-10T08:57:01.792Z,36.7
2023-04-10T08:57:57.971Z,36.8
2023-04-10T08:58:46.696Z,36.7
2023-04-10T08:59:34.323Z,36.8
2023-04-10T09:00:23.651Z,36.8
2023-04-10T09:01:11.667Z,36.6
2023-04-10T09:01:59.442Z,37.0
2023-04-10T09:02:46.991Z,37.1
2023-04-10T09:03:35.038Z,36.8
2023-04-10T09:04:22.726Z,36.8
2023-04-10T09:05:10.261Z,36.8
2023-04-10T09:05:57.871Z,36.9
2023-04-10T09:06:45.386Z,37.1
2023-04-10T09:07:33.031Z,37.0
2023-04-10T09:08:20.606Z,36.9
2023-04-10T09:09:08.122Z,36.8
2023-04-10T09:09:55.620Z,37.3
2023-04-10T09:10:43.053Z,36.8
2023-04-10T09:11:30.503Z,36.7
2023-04-10T09:12:17.981Z,36.8
2023-04-10T09:13:05.428Z,36.7
2023-04-10T09:13:52.880Z,36.8
2023-04-10T09:14:40.331Z,36.7
2023-04-10T09:15:27.780Z,36.6
2023-04-10T09:16:15.387Z,36.5
2023-04-10T09:17:02.890Z,36.7
2023-04-10T09:17:50.701Z,36.7
2023-04-10T09:18:38.219Z,36.8
2023-04-10T09:19:25.656Z,37.1
2023-04-10T09:20:13.113Z,37.2
2023-04-10T09:21:00.558Z,37.7
2023-04-10T09:21:47.991Z,37.5
2023-04-10T09:22:35.405Z,37.0
2023-04-10T09:23:22.816Z,37.4
2023-04-10T09:24:10.337Z,37.5
2023-04-10T09:24:57.909Z,37.4
2023-04-10T09:25:45.392Z,37.4
2023-04-10T09:26:32.838Z,37.3
2023-04-10T09:27:20.435Z,37.5
2023-04-10T09:28:08.173Z,37.5
2023-04-10T09:28:55.615Z,37.4
2023-04-10T09:29:43.069Z,37.4
2023-04-10T09:30:30.502Z,37.4
2023-04-10T09:31:17.957Z,37.5
2023-04-10T09:32:05.659Z,37.4
2023-04-10T09:32:53.141Z,37.5
2023-04-10T09:33:40.802Z,37.5
2023-04-10T09:34:28.249Z,37.6
2023-04-10T09:35:15.706Z,37.3
2023-04-10T09:36:03.217Z,37.3
2023-04-10T09:36:50.695Z,37.3
2023-04-10T09:37:38.199Z,37.4
2023-04-10T09:38:26.559Z,37.4
2023-04-10T09:39:14.002Z,37.4
2023-04-10T09:40:01.452Z,37.5
2023-04-10T09:40:48.878Z,37.4
2023-04-10T09:41:36.331Z,37.5
2023-04-10T09:42:23.764Z,37.5
2023-04-10T09:43:11.590Z,37.6
2023-04-10T09:43:59.078Z,37.6
2023-04-10T09:44:46.569Z,37.5
2023-04-10T09:45:34.121Z,37.5
2023-04-10T09:46:21.621Z,37.6
2023-04-10T09:47:09.136Z,37.6
2023-04-10T09:47:56.678Z,37.6
2023-04-10T09:48:44.106Z,37.6
2023-04-10T09:49:31.558Z,37.6
2023-04-10T09:50:19.015Z,37.5
2023-04-10T09:51:06.511Z,37.5
2023-04-10T09:51:53.947Z,37.5
2023-04-10T09:52:41.377Z,37.5
2023-04-10T09:53:29.305Z,37.5
2023-04-10T09:54:16.758Z,37.7
2023-04-10T09:55:04.357Z,37.7
2023-04-10T09:55:51.831Z,37.7
2023-04-10T09:56:39.305Z,37.7
2023-04-10T09:57:26.778Z,37.7
2023-04-10T09:58:14.379Z,37.7
2023-04-10T09:59:01.912Z,37.7
2023-04-10T09:59:49.413Z,37.7
2023-04-10T10:00:37.099Z,37.8
2023-04-10T10:01:24.579Z,37.9
2023-04-10T10:02:12.135Z,37.8
2023-04-10T10:02:59.846Z,37.8
2023-04-10T10:03:47.513Z,37.6
2023-04-10T10:04:35.500Z,37.5
2023-04-10T10:05:23.004Z,37.5
2023-04-10T10:06:10.459Z,37.6
2023-04-10T10:06:57.910Z,37.5
2023-04-10T10:07:45.352Z,37.5
2023-04-10T10:08:32.830Z,37.6
2023-04-10T10:09:20.294Z,37.7
2023-04-10T10:10:07.797Z,37.6
2023-04-10T10:10:55.537Z,37.6
2023-04-10T10:11:43.005Z,37.7
2023-04-10T10:12:30.465Z,37.6
2023-04-10T10:13:17.904Z,37.6
2023-04-10T10:14:05.325Z,37.7
2023-04-10T10:14:52.770Z,37.7
2023-04-10T10:15:40.228Z,37.8
2023-04-10T10:16:27.716Z,37.7
2023-04-10T10:17:15.283Z,37.9
2023-04-10T10:18:03.160Z,38.0
2023-04-10T10:18:50.690Z,37.9
2023-04-10T10:19:38.134Z,37.7
2023-04-10T10:20:25.685Z,37.6
2023-04-10T10:21:13.212Z,37.5
2023-04-10T10:22:00.671Z,37.5
2023-04-10T10:22:48.313Z,37.5
2023-04-10T10:23:35.949Z,37.6
2023-04-10T10:24:24.424Z,37.5
2023-04-10T10:25:12.147Z,38.0
2023-04-10T10:26:01.155Z,37.8
2023-04-10T10:26:49.776Z,37.3
2023-04-10T10:27:37.201Z,37.3
2023-04-10T10:28:24.665Z,37.3
2023-04-10T10:29:12.089Z,37.4
2023-04-10T10:30:00.999Z,37.4
2023-04-10T10:30:50.577Z,37.3
2023-04-10T10:31:38.184Z,37.3
2023-04-10T10:32:25.864Z,37.3
2023-04-10T10:33:13.308Z,37.3
2023-04-10T10:34:00.756Z,37.3
2023-04-10T10:34:48.187Z,37.4
2023-04-10T10:35:35.599Z,37.5
2023-04-10T10:36:23.043Z,37.4
2023-04-10T10:37:10.487Z,37.4
2023-04-10T10:37:58.098Z,37.3
2023-04-10T10:38:45.534Z,36.7
2023-04-10T10:39:33.041Z,35.4
2023-04-10T10:40:20.461Z,33.6
2023-04-10T10:41:07.957Z,33.1
2023-04-10T10:41:55.444Z,33.1
2023-04-10T10:42:42.892Z,32.9
2023-04-10T10:43:30.349Z,33.4
2023-04-10T10:44:17.758Z,33.2
2023-04-10T10:45:05.319Z,33.5
2023-04-10T10:45:52.849Z,33.5
2023-04-10T10:46:40.298Z,33.6
2023-04-10T10:47:27.738Z,33.6
2023-04-10T10:48:15.191Z,33.6
2023-04-10T10:49:02.721Z,33.7
2023-04-10T10:49:50.380Z,33.8
2023-04-10T10:50:37.790Z,33.6
2023-04-10T10:51:25.242Z,33.7
2023-04-10T10:52:12.737Z,33.6
2023-04-10T10:53:00.150Z,33.8
2023-04-10T10:53:47.629Z,33.8
2023-04-10T10:54:35.094Z,33.7
2023-04-10T10:55:22.884Z,33.8
2023-04-10T10:56:10.437Z,33.8
2023-04-10T10:56:57.935Z,33.7
2023-04-10T10:57:45.377Z,33.8
2023-04-10T10:58:32.817Z,33.7
2023-04-10T10:59:20.229Z,33.8
2023-04-10T11:00:07.679Z,33.9
2023-04-10T11:00:55.196Z,34.0
2023-04-10T11:01:42.735Z,34.1
2023-04-10T11:02:30.338Z,34.3
2023-04-10T11:03:18.149Z,34.6
2023-04-10T11:04:06.037Z,34.4
2023-04-10T11:04:53.565Z,33.8
2023-04-10T11:05:41.215Z,33.4
2023-04-10T11:06:28.687Z,33.3
2023-04-10T11:07:16.155Z,33.4
2023-04-10T11:08:03.594Z,33.5
2023-04-10T11:08:51.048Z,33.9
2023-04-10T11:09:38.472Z,34.0
2023-04-10T11:10:25.914Z,34.3
2023-04-10T11:11:13.360Z,34.4
2023-04-10T11:12:00.828Z,34.6
2023-04-10T11:12:48.296Z,34.6
2023-04-10T11:13:35.906Z,34.6
2023-04-10T11:14:23.538Z,34.7
2023-04-10T11:15:11.096Z,34.8
2023-04-10T11:15:58.766Z,34.8
2023-04-10T11:16:46.228Z,34.8
2023-04-10T11:17:33.709Z,34.8
2023-04-10T11:18:21.119Z,34.9
2023-04-10T11:19:13.839Z,34.9
2023-04-10T11:20:02.082Z,34.9
2023-04-10T11:20:49.551Z,34.9
2023-04-10T11:21:36.998Z,35.0
2023-04-10T11:22:24.419Z,35.0
2023-04-10T11:23:12.090Z,35.0
2023-04-10T11:23:59.825Z,35.0
2023-04-10T11:24:47.268Z,35.0
2023-04-10T11:25:34.686Z,35.2
2023-04-10T11:26:22.557Z,35.1
2023-04-10T11:27:10.125Z,35.1
2023-04-10T11:27:57.556Z,35.3
2023-04-10T11:28:45.021Z,35.3
2023-04-10T11:29:32.454Z,35.3
2023-04-10T11:30:19.890Z,35.3
2023-04-10T11:31:07.346Z,35.3
2023-04-10T11:31:54.844Z,35.4
2023-04-10T11:32:42.325Z,35.3
2023-04-10T11:33:29.815Z,35.4
2023-04-10T11:34:17.260Z,35.4
2023-04-10T11:35:05.301Z,35.4
2023-04-10T11:35:52.851Z,35.4
2023-04-10T11:36:40.325Z,35.5
2023-04-10T11:37:27.770Z,35.4
2023-04-10T11:38:15.209Z,35.5
2023-04-10T11:39:02.668Z,35.5
2023-04-10T11:39:50.110Z,35.5
2023-04-10T11:40:37.525Z,35.5
2023-04-10T11:41:24.956Z,35.6
2023-04-10T11:42:12.427Z,35.6
2023-04-10T11:42:59.873Z,35.5
2023-04-10T11:43:47.461Z,35.5
2023-04-10T11:44:34.972Z,35.7
2023-04-10T11:45:22.437Z,35.6
2023-04-10T11:46:09.922Z,35.7
2023-04-10T11:46:57.348Z,35.7
2023-04-10T11:47:45.020Z,35.8
2023-04-10T11:48:32.618Z,35.9
2023-04-10T11:49:20.097Z,35.8
2023-04-10T11:50:07.622Z,35.9
2023-04-10T11:50:55.070Z,35.8
2023-04-10T11:51:42.510Z,35.7
2023-04-10T11:52:30.052Z,35.8
2023-04-10T11:53:17.511Z,35.8
2023-04-10T11:54:05.082Z,35.7
2023-04-10T11:54:52.602Z,35.7
2023-04-10T11:55:40.023Z,35.7
2023-04-10T11:56:27.430Z,35.6
2023-04-10T11:57:14.872Z,35.8
2023-04-10T11:58:02.289Z,35.9
2023-04-10T11:58:49.707Z,35.9
2023-04-10T11:59:37.170Z,35.9
2023-04-10T12:00:24.968Z,35.9
2023-04-10T12:01:12.402Z,35.8
2023-04-10T12:02:00.049Z,35.8
2023-04-10T12:02:47.615Z,35.7
2023-04-10T12:03:35.173Z,35.9
2023-04-10T12:04:22.985Z,35.9
2023-04-10T12:05:10.691Z,35.9
2023-04-10T12:05:58.399Z,35.8
2023-04-10T12:06:45.824Z,34.6
2023-04-10T12:07:33.274Z,33.4
2023-04-10T12:08:20.728Z,33.2
2023-04-10T12:09:08.160Z,32.7
2023-04-10T12:09:55.610Z,32.7
2023-04-10T12:10:43.036Z,32.4
2023-04-10T12:11:30.487Z,32.2
2023-04-10T12:12:18.021Z,31.9
2023-04-10T12:13:06.219Z,31.8
2023-04-10T12:13:54.094Z,31.8
2023-04-10T12:14:41.572Z,31.8
2023-04-10T12:15:29.065Z,31.8
2023-04-10T12:16:16.652Z,31.9
2023-04-10T12:17:04.327Z,32.0
2023-04-10T12:17:51.848Z,31.9
2023-04-10T12:18:39.314Z,31.8
2023-04-10T12:19:26.745Z,32.0
2023-04-10T12:20:14.180Z,32.0
2023-04-10T12:21:01.617Z,32.3
2023-04-10T12:21:49.056Z,32.0
2023-04-10T12:22:36.508Z,32.1
2023-04-10T12:23:23.953Z,32.0
2023-04-10T12:24:11.403Z,32.0
2023-04-10T12:24:58.874Z,31.8
2023-04-10T12:25:46.338Z,31.9
2023-04-10T12:26:33.746Z,32.0
2023-04-10T12:27:21.182Z,31.9
2023-04-10T12:28:08.599Z,31.8
2023-04-10T12:28:56.217Z,31.9
2023-04-10T12:29:43.765Z,31.8
2023-04-10T12:30:31.382Z,31.8
2023-04-10T12:31:18.815Z,31.8
2023-04-10T12:32:06.243Z,32.0
2023-04-10T12:32:53.671Z,32.1
2023-04-10T12:33:41.150Z,32.2
2023-04-10T12:34:28.586Z,32.3
2023-04-10T12:35:16.140Z,32.2
2023-04-10T12:36:03.604Z,32.5
2023-04-10T12:36:51.077Z,32.4
2023-04-10T12:37:38.511Z,32.5
2023-04-10T12:38:25.932Z,32.5
2023-04-10T12:39:13.356Z,32.7
2023-04-10T12:40:00.784Z,32.9
2023-04-10T12:40:48.242Z,33.0
2023-04-10T12:41:35.688Z,33.0
2023-04-10T12:42:23.128Z,33.1
2023-04-10T12:43:10.579Z,33.3
2023-04-10T12:43:58.071Z,33.2
2023-04-10T12:44:45.541Z,33.2
2023-04-10T12:45:33.235Z,33.0
2023-04-10T12:46:20.712Z,33.0
2023-04-10T12:47:08.190Z,32.9
2023-04-10T12:47:55.649Z,32.6
2023-04-10T12:48:43.145Z,32.5
2023-04-10T12:49:30.575Z,32.5
2023-04-10T12:50:18.011Z,32.7
2023-04-10T12:51:05.421Z,32.6
2023-04-10T12:51:52.858Z,32.5
2023-04-10T12:52:40.286Z,32.5
2023-04-10T12:53:27.714Z,32.2
2023-04-10T12:54:15.222Z,32.0
2023-04-10T12:55:02.945Z,31.7
2023-04-10T12:55:50.696Z,31.7
2023-04-10T12:56:38.297Z,31.8
2023-04-10T12:57:26.108Z,31.9
2023-04-10T12:58:13.570Z,32.1
2023-04-10T12:59:01.011Z,31.9
2023-04-10T12:59:48.508Z,31.9
2023-04-10T13:00:35.967Z,32.0
2023-04-10T13:01:23.442Z,32.1
2023-04-10T13:02:11.106Z,32.2
2023-04-10T13:02:58.985Z,32.4
2023-04-10T13:03:47.058Z,32.5
2023-04-10T13:04:34.981Z,32.7
2023-04-10T13:05:23.052Z,32.6
2023-04-10T13:06:10.673Z,32.6
2023-04-10T13:06:58.723Z,32.7
2023-04-10T13:07:46.306Z,32.5
2023-04-10T13:08:33.858Z,32.5
2023-04-10T13:09:21.453Z,32.5
2023-04-10T13:10:08.899Z,32.4
2023-04-10T13:10:56.341Z,32.2
2023-04-10T13:11:44.726Z,32.2
2023-04-10T13:12:33.267Z,32.2
2023-04-10T13:13:20.720Z,32.2
2023-04-10T13:14:08.189Z,32.2
2023-04-10T13:14:55.596Z,32.1
2023-04-10T13:15:43.038Z,32.0
2023-04-10T13:16:30.546Z,32.0
2023-04-10T13:17:18.098Z,32.1
2023-04-10T13:18:06.128Z,32.2
2023-04-10T13:18:54.238Z,32.4
2023-04-10T13:19:41.890Z,32.4
2023-04-10T13:20:29.528Z,32.4
2023-04-10T13:21:16.983Z,32.7
2023-04-10T13:22:04.464Z,32.8
2023-04-10T13:22:51.917Z,32.9
2023-04-10T13:23:39.377Z,32.9
2023-04-10T13:24:26.813Z,32.9
2023-04-10T13:25:14.256Z,33.0
2023-04-10T13:26:01.720Z,33.0
2023-04-10T13:26:49.177Z,33.2
2023-04-10T13:27:36.630Z,33.1
2023-04-10T13:28:24.132Z,33.1
2023-04-10T13:29:11.591Z,33.0
2023-04-10T13:29:59.031Z,32.7
2023-04-10T13:30:46.474Z,32.5
2023-04-10T13:31:33.955Z,32.4
2023-04-10T13:32:21.423Z,32.5
2023-04-10T13:33:08.919Z,32.7
2023-04-10T13:33:56.392Z,32.8
2023-04-10T13:34:43.814Z,32.8
2023-04-10T13:35:31.312Z,32.8
2023-04-10T13:36:18.845Z,32.9
2023-04-10T13:37:06.416Z,32.9
2023-04-10T13:37:54.212Z,32.9
2023-04-10T13:38:41.678Z,32.8
2023-04-10T13:39:29.104Z,32.8
2023-04-10T13:40:16.542Z,32.9
2023-04-10T13:41:03.990Z,33.1
2023-04-10T13:41:51.602Z,33.3
2023-04-10T13:42:41.939Z,33.1
2023-04-10T13:43:30.019Z,32.8
2023-04-10T13:44:17.473Z,32.8
2023-04-10T13:45:04.976Z,32.9
2023-04-10T13:45:52.454Z,32.9
2023-04-10T13:46:39.912Z,33.0
2023-04-10T13:47:27.333Z,32.9
2023-04-10T13:48:14.769Z,32.9
2023-04-10T13:49:02.213Z,32.8
2023-04-10T13:49:49.695Z,32.5
2023-04-10T13:50:37.130Z,32.4
2023-04-10T13:51:24.562Z,32.3
2023-04-10T13:52:11.990Z,32.3
2023-04-10T13:52:59.403Z,32.3
2023-04-10T13:53:46.828Z,32.3
2023-04-10T13:54:34.244Z,32.3
2023-04-10T13:55:21.754Z,32.3
2023-04-10T13:56:09.187Z,32.3
2023-04-10T13:56:56.617Z,32.3
2023-04-10T13:57:44.079Z,32.4
2023-04-10T13:58:31.540Z,32.4
2023-04-10T13:59:19.076Z,32.4
2023-04-10T14:00:06.569Z,32.5
2023-04-10T14:00:54.047Z,32.5
2023-04-10T14:01:41.960Z,32.6
2023-04-10T14:02:29.520Z,32.6
2023-04-10T14:03:17.170Z,32.5
2023-04-10T14:04:04.722Z,32.4
2023-04-10T14:04:52.379Z,32.4
2023-04-10T14:05:39.802Z,32.4
2023-04-10T14:06:27.386Z,33.0
2023-04-10T14:07:14.819Z,32.6
2023-04-10T14:08:02.266Z,32.7
2023-04-10T14:08:49.711Z,32.7
2023-04-10T14:09:37.160Z,32.7
2023-04-10T14:10:24.614Z,32.9
2023-04-10T14:11:12.049Z,33.0
2023-04-10T14:11:59.549Z,33.1
2023-04-10T14:12:46.989Z,33.0
2023-04-10T14:13:34.423Z,32.9
2023-04-10T14:14:21.865Z,32.8
2023-04-10T14:15:09.323Z,32.9
2023-04-10T14:15:56.773Z,32.8
2023-04-10T14:16:44.239Z,32.9
2023-04-10T14:17:31.871Z,32.9
2023-04-10T14:18:19.336Z,33.0
2023-04-10T14:19:06.931Z,33.1
2023-04-10T14:19:54.638Z,33.0
2023-04-10T14:20:42.135Z,33.0
2023-04-10T14:21:29.567Z,33.0
2023-04-10T14:22:16.980Z,33.1
2023-04-10T14:23:04.447Z,33.3
2023-04-10T14:23:51.892Z,33.3
2023-04-10T14:24:39.314Z,33.1
2023-04-10T14:25:26.799Z,33.0
2023-04-10T14:26:14.237Z,33.0
2023-04-10T14:27:01.661Z,33.1
2023-04-10T14:27:49.059Z,33.2